createdAt,value
2017-11-24T00:00:42.245Z,88.60
2017-11-24T00:03:14.161Z,88.60
2017-11-24T00:05:46.046Z,88.60
2017-11-24T00:08:17.953Z,88.20
2017-11-24T00:10:49.816Z,88.60
2017-11-24T00:13:22.494Z,87.80
2017-11-24T00:15:54.361Z,87.80
2017-11-24T00:18:27.036Z,86.90
2017-11-24T00:20:59.669Z,86.20
2017-11-24T00:23:31.575Z,86.10
2017-11-24T00:26:04.213Z,87.00
2017-11-24T00:28:36.150Z,87.00
2017-11-24T00:31:08.020Z,87.20
2017-11-24T00:33:39.920Z,86.50
2017-11-24T00:36:11.797Z,86.50
2017-11-24T00:38:44.448Z,86.70
2017-11-24T00:41:16.318Z,86.50
2017-11-24T00:43:48.226Z,86.50
2017-11-24T00:46:20.115Z,86.10
2017-11-24T00:48:52.019Z,85.40
2017-11-24T00:51:24.653Z,86.50
2017-11-24T00:53:56.560Z,86.50
2017-11-24T00:56:29.294Z,86.20
2017-11-24T00:59:01.255Z,86.20
2017-11-24T01:01:33.124Z,86.40
2017-11-24T01:04:05.080Z,86.20
2017-11-24T01:06:37.306Z,86.00
2017-11-24T01:09:09.208Z,85.50
2017-11-24T01:11:41.091Z,85.60
2017-11-24T01:14:12.989Z,85.60
2017-11-24T01:16:44.865Z,86.10
2017-11-24T01:19:16.845Z,86.50
2017-11-24T01:21:48.821Z,85.90
2017-11-24T01:24:20.729Z,87.00
2017-11-24T01:26:52.609Z,86.70
2017-11-24T01:29:24.511Z,86.70
2017-11-24T01:31:56.454Z,86.90
2017-11-24T01:34:28.422Z,87.20
2017-11-24T01:37:00.288Z,87.40
2017-11-24T01:39:32.244Z,87.10
2017-11-24T01:42:04.119Z,87.40
2017-11-24T01:44:36.011Z,87.40
2017-11-24T01:47:08.645Z,87.20
2017-11-24T01:49:40.552Z,87.20
2017-11-24T01:52:12.428Z,87.00
2017-11-24T01:54:44.332Z,87.20
2017-11-24T01:57:16.282Z,87.00
2017-11-24T01:59:48.192Z,87.30
2017-11-24T02:02:20.829Z,87.10
2017-11-24T02:04:52.784Z,87.10
2017-11-24T02:07:24.654Z,86.20
2017-11-24T02:09:56.552Z,86.00
2017-11-24T02:12:28.440Z,86.40
2017-11-24T02:15:00.344Z,85.70
2017-11-24T02:17:32.292Z,86.20
2017-11-24T02:20:04.189Z,87.00
2017-11-24T02:22:36.929Z,87.20
2017-11-24T02:25:08.827Z,87.10
2017-11-24T02:27:41.483Z,86.00
2017-11-24T02:30:13.386Z,86.00
2017-11-24T02:32:45.540Z,86.40
2017-11-24T02:35:17.461Z,86.50
2017-11-24T02:37:49.332Z,86.60
2017-11-24T02:40:21.241Z,87.10
2017-11-24T02:42:53.106Z,86.90
2017-11-24T02:45:24.993Z,87.60
2017-11-24T02:47:56.885Z,88.20
2017-11-24T02:50:28.770Z,88.70
2017-11-24T02:53:00.644Z,89.90
2017-11-24T02:55:32.558Z,90.70
2017-11-24T02:58:04.433Z,90.80
2017-11-24T03:00:37.112Z,91.40
2017-11-24T03:03:09.758Z,91.40
2017-11-24T03:05:41.708Z,91.40
2017-11-24T03:08:13.669Z,91.60
2017-11-24T03:10:45.638Z,92.20
2017-11-24T03:13:17.504Z,92.60
2017-11-24T03:15:49.408Z,92.40
2017-11-24T03:18:21.312Z,92.60
2017-11-24T03:20:53.281Z,93.20
2017-11-24T03:23:25.156Z,93.50
2017-11-24T03:25:57.062Z,93.80
2017-11-24T03:28:28.936Z,93.80
2017-11-24T03:31:00.926Z,93.90
2017-11-24T03:33:32.806Z,93.70
2017-11-24T03:36:04.704Z,93.60
2017-11-24T03:38:36.609Z,93.80
2017-11-24T03:41:08.511Z,93.70
2017-11-24T03:43:40.424Z,94.50
2017-11-24T03:46:12.324Z,94.70
2017-11-24T03:48:45.048Z,95.20
2017-11-24T03:51:16.960Z,95.20
2017-11-24T03:53:49.617Z,95.40
2017-11-24T03:56:21.534Z,95.40
2017-11-24T03:58:53.421Z,95.40
2017-11-24T04:01:25.309Z,95.30
2017-11-24T04:03:57.181Z,95.80
2017-11-24T04:06:29.925Z,95.60
2017-11-24T04:09:01.794Z,95.60
2017-11-24T04:11:33.737Z,95.80
2017-11-24T04:14:05.701Z,96.00
2017-11-24T04:16:37.665Z,96.00
2017-11-24T04:19:09.561Z,96.10
2017-11-24T04:21:42.213Z,96.40
2017-11-24T04:24:14.085Z,96.40
2017-11-24T04:26:46.024Z,96.40
2017-11-24T04:29:17.985Z,96.20
2017-11-24T04:31:49.950Z,96.40
2017-11-24T04:34:21.830Z,96.40
2017-11-24T04:36:53.736Z,96.40
2017-11-24T04:39:25.626Z,96.50
2017-11-24T04:41:57.528Z,96.50
2017-11-24T04:44:30.174Z,96.40
2017-11-24T04:47:02.079Z,96.40
2017-11-24T04:49:34.713Z,96.40
2017-11-24T04:52:06.612Z,96.30
2017-11-24T04:54:39.250Z,96.50
2017-11-24T04:57:11.132Z,96.40
2017-11-24T04:59:43.006Z,96.50
2017-11-24T05:02:15.684Z,96.30
2017-11-24T05:04:48.325Z,96.20
2017-11-24T05:07:20.225Z,96.20
2017-11-24T05:09:52.865Z,96.20
2017-11-24T05:12:24.771Z,96.20
2017-11-24T05:14:57.411Z,96.40
2017-11-24T05:17:29.316Z,96.40
2017-11-24T05:20:01.956Z,96.40
2017-11-24T05:22:33.862Z,96.40
2017-11-24T05:25:05.746Z,96.50
2017-11-24T05:27:37.645Z,96.60
2017-11-24T05:30:09.512Z,96.70
2017-11-24T05:32:42.193Z,96.90
2017-11-24T05:35:15.105Z,96.90
2017-11-24T05:37:46.989Z,96.80
2017-11-24T05:40:18.870Z,96.80
2017-11-24T05:42:50.778Z,96.80
2017-11-24T05:45:22.648Z,96.80
2017-11-24T05:47:54.560Z,96.30
2017-11-24T05:50:27.226Z,95.80
2017-11-24T05:52:59.129Z,96.30
2017-11-24T05:55:31.760Z,96.50
2017-11-24T05:58:03.660Z,96.50
2017-11-24T06:00:36.292Z,96.70
2017-11-24T06:03:08.196Z,96.70
2017-11-24T06:05:40.829Z,96.40
2017-11-24T06:08:12.725Z,96.40
2017-11-24T06:10:44.601Z,96.20
2017-11-24T06:13:17.270Z,96.10
2017-11-24T06:15:49.892Z,96.30
2017-11-24T06:18:21.818Z,96.10
2017-11-24T06:20:54.444Z,95.90
2017-11-24T06:23:26.352Z,95.80
2017-11-24T06:25:58.987Z,96.10
2017-11-24T06:28:30.894Z,96.10
2017-11-24T06:31:03.521Z,95.90
2017-11-24T06:33:35.406Z,95.90
2017-11-24T06:36:07.274Z,95.90
2017-11-24T06:38:39.169Z,95.80
2017-11-24T06:41:11.058Z,96.00
2017-11-24T06:43:42.987Z,96.20
2017-11-24T06:46:14.883Z,96.00
2017-11-24T06:48:46.773Z,96.10
2017-11-24T06:51:18.709Z,96.10
2017-11-24T06:53:50.680Z,96.20
2017-11-24T06:56:23.334Z,96.20
2017-11-24T06:58:55.236Z,96.10
2017-11-24T07:01:27.126Z,96.30
2017-11-24T07:03:59.790Z,96.10
2017-11-24T07:06:32.457Z,96.30
2017-11-24T07:09:04.347Z,96.30
2017-11-24T07:11:36.221Z,96.20
2017-11-24T07:14:08.139Z,96.00
2017-11-24T07:16:40.010Z,96.10
2017-11-24T07:19:12.705Z,96.30
2017-11-24T07:21:44.577Z,96.30
2017-11-24T07:24:16.468Z,96.30
2017-11-24T07:26:48.332Z,96.20
2017-11-24T07:29:20.288Z,96.20
2017-11-24T07:31:52.158Z,96.10
2017-11-24T07:34:24.073Z,96.00
2017-11-24T07:36:55.952Z,96.20
2017-11-24T07:39:27.916Z,96.10
2017-11-24T07:41:59.780Z,96.30
2017-11-24T07:44:31.657Z,96.30
2017-11-24T07:47:03.526Z,96.30
2017-11-24T07:49:35.413Z,96.20
2017-11-24T07:52:08.057Z,96.30
2017-11-24T07:54:39.952Z,96.30
2017-11-24T07:57:12.584Z,96.40
2017-11-24T07:59:44.544Z,96.40
2017-11-24T08:02:16.409Z,96.30
2017-11-24T08:04:48.316Z,95.80
2017-11-24T08:07:20.957Z,96.10
2017-11-24T08:09:52.848Z,96.10
2017-11-24T08:12:25.491Z,96.20
2017-11-24T08:14:57.375Z,96.20
2017-11-24T08:17:30.014Z,96.30
2017-11-24T08:20:01.931Z,96.30
2017-11-24T08:22:34.565Z,96.40
2017-11-24T08:25:06.476Z,96.40
2017-11-24T08:27:39.109Z,96.50
2017-11-24T08:30:11.028Z,96.50
2017-11-24T08:32:43.200Z,96.40
2017-11-24T08:35:15.089Z,96.40
2017-11-24T08:37:46.960Z,96.40
2017-11-24T08:40:18.874Z,96.50
2017-11-24T08:42:50.745Z,96.40
2017-11-24T08:45:22.645Z,96.40
2017-11-24T08:47:54.513Z,96.30
2017-11-24T08:50:26.422Z,96.10
2017-11-24T08:52:58.297Z,96.20
2017-11-24T08:55:30.185Z,96.20
2017-11-24T08:58:02.848Z,96.10
2017-11-24T09:00:34.754Z,96.10
2017-11-24T09:03:07.384Z,95.90
2017-11-24T09:05:40.052Z,95.90
2017-11-24T09:08:11.925Z,95.90
2017-11-24T09:10:43.816Z,95.90
2017-11-24T09:13:16.457Z,96.00
2017-11-24T09:15:48.349Z,96.00
2017-11-24T09:18:20.216Z,96.10
2017-11-24T09:20:52.879Z,96.20
2017-11-24T09:23:24.749Z,95.90
2017-11-24T09:25:56.644Z,95.50
2017-11-24T09:28:28.508Z,95.20
2017-11-24T09:31:00.389Z,95.60
2017-11-24T09:33:32.258Z,95.80
2017-11-24T09:36:04.136Z,95.70
2017-11-24T09:38:36.029Z,95.40
2017-11-24T09:41:08.697Z,94.80
2017-11-24T09:43:41.337Z,94.70
2017-11-24T09:46:13.238Z,94.70
2017-11-24T09:48:45.868Z,95.10
2017-11-24T09:51:17.768Z,95.10
2017-11-24T09:53:50.409Z,95.20
2017-11-24T09:56:23.097Z,95.20
2017-11-24T09:58:54.975Z,95.20
2017-11-24T10:01:26.885Z,95.10
2017-11-24T10:03:58.762Z,95.30
2017-11-24T10:06:30.645Z,95.10
2017-11-24T10:09:02.521Z,95.10
2017-11-24T10:11:35.434Z,95.00
2017-11-24T10:14:07.309Z,94.90
2017-11-24T10:16:39.196Z,95.10
2017-11-24T10:19:11.102Z,95.10
2017-11-24T10:21:43.773Z,95.30
2017-11-24T10:24:16.414Z,95.10
2017-11-24T10:26:48.304Z,95.10
2017-11-24T10:29:20.946Z,95.40
2017-11-24T10:31:53.617Z,95.10
2017-11-24T10:34:25.496Z,95.10
2017-11-24T10:36:57.402Z,95.10
2017-11-24T10:39:30.037Z,95.00
2017-11-24T10:42:01.968Z,95.00
2017-11-24T10:44:33.845Z,95.20
2017-11-24T10:47:06.508Z,94.80
2017-11-24T10:49:38.381Z,94.70
2017-11-24T10:52:10.297Z,94.90
2017-11-24T10:54:42.933Z,94.70
2017-11-24T10:57:14.833Z,94.70
2017-11-24T10:59:47.480Z,94.90
2017-11-24T11:02:19.385Z,94.90
2017-11-24T11:04:51.253Z,94.80
2017-11-24T11:07:23.147Z,94.50
2017-11-24T11:09:55.017Z,94.20
2017-11-24T11:12:26.917Z,93.60
2017-11-24T11:14:59.549Z,93.90
2017-11-24T11:17:31.581Z,93.90
2017-11-24T11:20:03.456Z,93.80
2017-11-24T11:22:35.339Z,93.90
2017-11-24T11:25:07.209Z,94.20
2017-11-24T11:27:39.113Z,94.10
2017-11-24T11:30:10.976Z,93.60
2017-11-24T11:32:42.881Z,93.40
2017-11-24T11:35:14.760Z,93.20
2017-11-24T11:37:46.661Z,93.40
2017-11-24T11:40:18.529Z,93.60
2017-11-24T11:42:50.438Z,93.80
2017-11-24T11:45:22.318Z,93.70
2017-11-24T11:47:55.055Z,93.20
2017-11-24T11:50:26.940Z,93.20
2017-11-24T11:52:58.837Z,93.70
2017-11-24T11:55:30.714Z,93.10
2017-11-24T11:58:02.606Z,93.80
2017-11-24T12:00:34.477Z,93.60
2017-11-24T12:03:06.481Z,93.60
2017-11-24T12:05:38.348Z,93.20
2017-11-24T12:08:10.231Z,93.10
2017-11-24T12:10:42.105Z,92.90
2017-11-24T12:13:14.001Z,92.70
2017-11-24T12:15:46.638Z,92.70
2017-11-24T12:18:18.535Z,92.70
2017-11-24T12:20:52.044Z,92.90
2017-11-24T12:23:24.688Z,92.60
2017-11-24T12:25:56.899Z,92.60
2017-11-24T12:28:28.796Z,93.00
2017-11-24T12:31:00.664Z,93.20
2017-11-24T12:33:32.557Z,93.00
2017-11-24T12:36:05.205Z,93.80
2017-11-24T12:38:37.100Z,93.80
2017-11-24T12:41:09.741Z,93.80
2017-11-24T12:43:41.718Z,93.80
2017-11-24T12:46:13.596Z,93.90
2017-11-24T12:48:46.248Z,94.10
2017-11-24T12:51:18.119Z,94.10
2017-11-24T12:53:50.014Z,93.90
2017-11-24T12:56:21.877Z,94.10
2017-11-24T12:58:53.791Z,93.70
2017-11-24T13:01:25.689Z,93.70
2017-11-24T13:03:57.618Z,94.00
2017-11-24T13:06:29.502Z,93.80
2017-11-24T13:09:01.608Z,93.70
2017-11-24T13:11:33.493Z,93.90
2017-11-24T13:14:05.407Z,93.60
2017-11-24T13:16:37.269Z,93.90
2017-11-24T13:19:09.167Z,93.40
2017-11-24T13:21:41.052Z,93.60
2017-11-24T13:24:12.961Z,93.60
2017-11-24T13:26:44.830Z,93.80
2017-11-24T13:29:16.716Z,93.90
2017-11-24T13:31:48.599Z,93.80
2017-11-24T13:34:21.263Z,93.90
2017-11-24T13:36:53.137Z,93.90
2017-11-24T13:39:25.808Z,93.70
2017-11-24T13:41:57.689Z,93.70
2017-11-24T13:44:30.354Z,93.90
2017-11-24T13:47:02.984Z,93.80
2017-11-24T13:49:34.886Z,93.80
2017-11-24T13:52:06.769Z,93.60
2017-11-24T13:54:39.441Z,93.50
2017-11-24T13:57:12.076Z,93.20
2017-11-24T13:59:43.989Z,93.10
2017-11-24T14:02:15.858Z,93.40
2017-11-24T14:04:47.756Z,93.20
2017-11-24T14:07:19.635Z,93.20
2017-11-24T14:09:51.516Z,93.30
2017-11-24T14:12:23.398Z,93.30
2017-11-24T14:14:55.293Z,92.80
2017-11-24T14:17:27.178Z,93.10
2017-11-24T14:19:59.070Z,93.30
2017-11-24T14:22:30.946Z,93.40
2017-11-24T14:25:02.829Z,93.50
2017-11-24T14:27:34.707Z,93.30
2017-11-24T14:30:06.605Z,93.60
2017-11-24T14:32:38.496Z,93.00
2017-11-24T14:35:10.400Z,93.00
2017-11-24T14:37:42.273Z,92.70
2017-11-24T14:40:14.945Z,92.60
2017-11-24T14:42:47.581Z,92.80
2017-11-24T14:45:19.492Z,92.50
2017-11-24T14:47:52.121Z,92.80
2017-11-24T14:50:24.024Z,92.80
2017-11-24T14:52:56.662Z,92.90
2017-11-24T14:55:28.568Z,92.90
2017-11-24T14:58:01.205Z,93.20
2017-11-24T15:00:33.105Z,93.20
2017-11-24T15:03:05.750Z,93.30
2017-11-24T15:05:37.658Z,93.00
2017-11-24T15:08:10.295Z,93.20
2017-11-24T15:10:42.190Z,93.20
2017-11-24T15:13:14.828Z,93.30
2017-11-24T15:15:46.729Z,93.30
2017-11-24T15:18:19.365Z,93.30
2017-11-24T15:20:51.260Z,93.30
2017-11-24T15:23:23.897Z,93.40
2017-11-24T15:25:55.828Z,93.30
2017-11-24T15:28:27.711Z,93.10
2017-11-24T15:30:59.606Z,93.20
2017-11-24T15:33:31.485Z,93.20
2017-11-24T15:36:04.143Z,93.20
2017-11-24T15:38:36.793Z,93.40
2017-11-24T15:41:08.690Z,93.30
2017-11-24T15:43:40.565Z,93.10
2017-11-24T15:46:13.243Z,93.20
2017-11-24T15:48:45.885Z,93.20
2017-11-24T15:51:17.797Z,93.20
2017-11-24T15:53:49.679Z,93.40
2017-11-24T15:56:21.588Z,93.10
2017-11-24T15:58:53.490Z,93.20
2017-11-24T16:01:26.145Z,93.30
2017-11-24T16:03:58.036Z,93.30
2017-11-24T16:06:29.972Z,93.30
2017-11-24T16:09:01.870Z,93.40
2017-11-24T16:11:33.811Z,93.60
2017-11-24T16:14:05.738Z,93.60
2017-11-24T16:16:38.396Z,93.50
2017-11-24T16:19:10.270Z,93.50
2017-11-24T16:21:42.173Z,93.50
2017-11-24T16:24:14.066Z,93.30
2017-11-24T16:26:45.960Z,93.10
2017-11-24T16:29:18.595Z,93.20
2017-11-24T16:31:50.507Z,93.20
2017-11-24T16:34:23.182Z,93.50
2017-11-24T16:36:55.852Z,93.60
2017-11-24T16:39:27.737Z,93.60
2017-11-24T16:41:59.633Z,93.80
2017-11-24T16:44:31.537Z,93.70
2017-11-24T16:47:04.173Z,93.90
2017-11-24T16:49:36.062Z,93.80
2017-11-24T16:52:07.920Z,93.90
2017-11-24T16:54:39.825Z,93.90
2017-11-24T16:57:11.699Z,93.80
2017-11-24T16:59:43.597Z,94.20
2017-11-24T17:02:15.803Z,93.90
2017-11-24T17:04:47.716Z,93.90
2017-11-24T17:07:19.579Z,94.00
2017-11-24T17:09:51.477Z,93.90
2017-11-24T17:12:24.108Z,93.90
2017-11-24T17:14:56.008Z,93.90
2017-11-24T17:17:28.649Z,94.20
2017-11-24T17:20:00.549Z,94.20
2017-11-24T17:22:33.202Z,94.10
2017-11-24T17:25:05.101Z,94.10
2017-11-24T17:27:36.977Z,94.30
2017-11-24T17:30:08.874Z,94.10
2017-11-24T17:32:40.749Z,94.20
2017-11-24T17:35:12.645Z,94.20
2017-11-24T17:37:44.524Z,94.00
2017-11-24T17:40:16.409Z,94.00
2017-11-24T17:42:48.279Z,94.10
2017-11-24T17:45:20.202Z,94.00
2017-11-24T17:47:52.072Z,94.10
2017-11-24T17:50:23.972Z,93.90
2017-11-24T17:52:55.845Z,93.80
2017-11-24T17:55:28.506Z,93.80
2017-11-24T17:58:00.385Z,93.80
2017-11-24T18:00:33.045Z,93.50
2017-11-24T18:03:04.965Z,93.50
2017-11-24T18:05:36.875Z,93.90
2017-11-24T18:08:08.747Z,93.60
2017-11-24T18:10:41.410Z,93.50
2017-11-24T18:13:13.296Z,93.50
2017-11-24T18:15:45.200Z,93.20
2017-11-24T18:18:17.072Z,93.20
2017-11-24T18:20:48.969Z,93.50
2017-11-24T18:23:21.603Z,93.20
2017-11-24T18:25:53.511Z,93.20
2017-11-24T18:28:26.136Z,93.10
2017-11-24T18:30:58.055Z,93.10
2017-11-24T18:33:29.924Z,93.20
2017-11-24T18:36:01.826Z,93.30
2017-11-24T18:38:33.705Z,93.00
2017-11-24T18:41:05.646Z,92.80
2017-11-24T18:43:37.508Z,92.70
2017-11-24T18:46:09.413Z,92.50
2017-11-24T18:48:41.281Z,92.50
2017-11-24T18:51:13.193Z,93.10
2017-11-24T18:53:45.070Z,92.80
2017-11-24T18:56:16.979Z,92.90
2017-11-24T18:58:48.850Z,93.00
2017-11-24T19:01:20.768Z,92.80
2017-11-24T19:03:52.649Z,92.70
2017-11-24T19:06:24.544Z,92.60
2017-11-24T19:08:56.438Z,92.60
2017-11-24T19:11:29.195Z,92.80
2017-11-24T19:14:01.071Z,92.80
2017-11-24T19:16:32.968Z,92.60
2017-11-24T19:19:04.838Z,92.60
2017-11-24T19:21:36.767Z,92.50
2017-11-24T19:24:09.400Z,92.80
2017-11-24T19:26:41.288Z,92.80
2017-11-24T19:29:13.929Z,93.20
2017-11-24T19:31:45.832Z,92.90
2017-11-24T19:34:18.489Z,92.80
2017-11-24T19:36:50.421Z,92.80
2017-11-24T19:39:22.301Z,93.00
2017-11-24T19:41:54.229Z,93.00
2017-11-24T19:44:26.116Z,93.00
2017-11-24T19:46:58.091Z,92.80
2017-11-24T19:49:29.996Z,92.80
2017-11-24T19:52:02.883Z,93.00
2017-11-24T19:54:34.753Z,93.00
2017-11-24T19:57:06.652Z,92.90
2017-11-24T19:59:38.534Z,93.00
2017-11-24T20:02:10.445Z,92.90
2017-11-24T20:04:42.319Z,93.10
2017-11-24T20:07:14.225Z,93.10
2017-11-24T20:09:46.867Z,92.90
2017-11-24T20:12:18.769Z,92.90
2017-11-24T20:14:51.414Z,93.10
2017-11-24T20:17:23.314Z,93.10
2017-11-24T20:19:55.956Z,92.90
2017-11-24T20:22:27.860Z,92.80
2017-11-24T20:24:59.810Z,93.10
2017-11-24T20:27:32.469Z,93.10
2017-11-24T20:30:04.341Z,93.10
2017-11-24T20:32:37.009Z,93.00
2017-11-24T20:35:08.890Z,93.00
2017-11-24T20:37:41.549Z,93.20
2017-11-24T20:40:13.449Z,93.20
2017-11-24T20:42:45.341Z,93.20
2017-11-24T20:45:17.224Z,93.40
2017-11-24T20:47:49.909Z,93.30
2017-11-24T20:50:22.550Z,94.20
2017-11-24T20:52:54.453Z,94.00
2017-11-24T20:55:27.104Z,93.90
2017-11-24T20:57:59.013Z,93.90
2017-11-24T21:00:31.655Z,94.10
2017-11-24T21:03:03.559Z,94.10
2017-11-24T21:05:35.437Z,94.00
2017-11-24T21:08:07.347Z,94.00
2017-11-24T21:10:39.984Z,93.90
2017-11-24T21:13:11.889Z,93.90
2017-11-24T21:15:44.533Z,94.20
2017-11-24T21:18:16.418Z,94.20
2017-11-24T21:20:48.293Z,94.10
2017-11-24T21:23:20.947Z,94.20
2017-11-24T21:25:52.829Z,94.20
2017-11-24T21:28:25.477Z,94.20
2017-11-24T21:30:57.349Z,94.20
2017-11-24T21:33:29.258Z,94.20
2017-11-24T21:36:01.148Z,94.30
2017-11-24T21:38:33.051Z,94.30
2017-11-24T21:41:05.681Z,94.30
2017-11-24T21:43:37.589Z,94.30
2017-11-24T21:46:10.225Z,94.10
2017-11-24T21:48:42.131Z,94.10
2017-11-24T21:51:14.777Z,94.10
2017-11-24T21:53:46.693Z,94.10
2017-11-24T21:56:18.575Z,94.10
2017-11-24T21:58:50.461Z,94.00
2017-11-24T22:01:22.333Z,94.20
2017-11-24T22:03:55.014Z,94.60
2017-11-24T22:06:26.885Z,94.30
2017-11-24T22:08:58.784Z,94.40
2017-11-24T22:11:30.669Z,94.60
2017-11-24T22:14:02.568Z,94.50
2017-11-24T22:16:35.212Z,94.30
2017-11-24T22:19:07.120Z,94.30
2017-11-24T22:21:38.989Z,94.40
2017-11-24T22:24:10.901Z,94.40
2017-11-24T22:26:42.773Z,94.30
2017-11-24T22:29:15.444Z,94.50
2017-11-24T22:31:47.313Z,94.50
2017-11-24T22:34:19.965Z,94.40
2017-11-24T22:36:51.841Z,94.40
2017-11-24T22:39:23.766Z,94.30
2017-11-24T22:41:55.657Z,94.40
2017-11-24T22:44:27.568Z,94.40
2017-11-24T22:46:59.440Z,94.50
2017-11-24T22:49:31.330Z,94.50
2017-11-24T22:52:03.973Z,94.50
2017-11-24T22:54:35.875Z,94.50
2017-11-24T22:57:07.765Z,94.50
2017-11-24T22:59:40.438Z,94.40
2017-11-24T23:02:13.072Z,94.40
2017-11-24T23:04:44.981Z,94.40
2017-11-24T23:07:17.628Z,94.30
2017-11-24T23:09:49.541Z,94.30
2017-11-24T23:12:21.427Z,94.10
2017-11-24T23:14:53.330Z,94.10
2017-11-24T23:17:25.963Z,94.20
2017-11-24T23:19:57.867Z,94.10
2017-11-24T23:22:29.750Z,94.10
2017-11-24T23:25:02.513Z,94.10
2017-11-24T23:27:35.156Z,93.80
2017-11-24T23:30:07.075Z,93.80
